EDLP/PAD METAR and TAF weather

Enter ICAO airport designator
Station Type Date Time Source
EDLP METAR 2020/07/15 05:50 UTC NOAA

EDLP 150550Z 32003KT 250V010 1500 -RA BR FEW002 BKN004 OVC013 13/13 Q1012


Station Type Date Time Source
EDLP Decoded METAR 2020/07/15 05:50 UTC NOAA

Paderborn / Lippstadt, Germany (EDLP) 51-37N 008-37E
Jul 15, 2020 - 01:50 AM EDT / 2020.07.15 0550 UTC
Wind: from the NW (320 degrees) at 3 MPH (3 KT) (direction variable):0
Visibility: less than 1 mile:0
Sky conditions: overcast
Weather: light rain; mist
Temperature: 55 F (13 C)
Dew Point: 55 F (13 C)
Relative Humidity: 100%
Pressure (altimeter): 29.88 in. Hg (1012 hPa)
ob: EDLP 150550Z 32003KT 250V010 1500 -RA BR FEW002 BKN004 OVC013 13/13 Q1012
cycle: 6

Station Type Date Time Source
EDLP TAF 2020/07/15 06:58 UTC NOAA

TAF COR EDLP 150552Z 1506/1606 28003KT 2500 BR BKN008
BECMG 1506/1509 29008KT 9999 BKN030
BECMG 1519/1522 VRB03KT

Example: see airport list